LKMTEPMO

Guest
Details From LKMT - Ostrava Mosnov
To EPMO - MODLIN
Flight Number -
Tags generated
Created
Modified
Stats Distance 192 nm / 355 km
Max Altitude 21,000 ft / 6,401 m
Waypoints 3
Social Downloads 0
Likes 0
Share VATSIM

Download

Looking for another format? Having issues loading an existing format? Contact us
Advertisement - Login to hide

Notes

Basic altitude profile: - Ascent Rate: 2500ft/min - Ascent Speed: 250kts - Cruise Altitude: 35000ft - Cruise Speed: 420kts - Descent Rate: 1500ft/min - Descent Speed: 250kts Options: - Use NATs: yes - Use PACOTS: yes - Use low airways: yes - Use high airways: yes

Route

LKMT ROGAL EPMO

ID Type Via Altitude Latitude Longitude Leg Dist Tot Dist Heading (true) Name
O LKMT APT - 0 ft / 0 m 49.69622˚ 18.11085˚ - 0 nm - Ostrava Mosnov
ROGAL FIX - 21,000 ft / 6,401 m 50.98694˚ 19.48556˚ 93 nm 93 nm 34° / 35° -
O EPMO APT - 0 ft / 0 m 52.45111˚ 20.65178˚ 98 nm 191 nm 26° / 27° MODLIN

Altitude Profile

Advertisement - Login to hide

Weather


0- 5 10 15 20 25 30 35+ Temperature / ° C

Clouds and Precipitation
Forecast for 2018-05-27 18:00 UTC. Updated an hour ago

Ground ~20,000 ft ~40,000 ft Winds

LKMT

Details ICAO LKMT (OSR)
Name Ostrava Mosnov
Region Czech Republic
Timezone Europe/Prague (UTC+2.0)
Stats Elevation 843 ft / 257 m (AMSL)
Location 49.696217° 18.110855°
Runways 1
Magnetic Variation 4.818° E

METAR

LKMT 271800Z 01002KT CAVOK 24/15 Q1020 NOSIG

Decode

TAF

TAF LKMT 271100Z 2712/2818 02006KT CAVOK TEMPO 2712/2718 04014KT 9999 SCT050TCU PROB30 TEMPO 2712/2715 8000 -TSRA SCT045CB TEMPO 2810/2818 05014G24KT 9999 SCT045CB

Decode

Departure Runways

ID Width Length Bearing (true) Bearing (mag) Surface Threshold Offset Overrun Length
04 207 ft / 63 m 11,532 ft / 3,515 m 46.29° 41.47° Concrete 0 ft / 0 m 52 ft / 16 m
22 207 ft / 63 m 11,532 ft / 3,515 m 226.31° 221.49° Concrete 0 ft / 0 m 49 ft / 15 m

EPMO

Details ICAO EPMO (WMI)
Name MODLIN
Region Poland
Timezone Europe/Warsaw (UTC+2.0)
Stats Elevation 341 ft / 104 m (AMSL)
Location 52.451110° 20.651778°
Runways 1
Magnetic Variation 5.824° E

METAR

EPMO 271800Z 08006KT CAVOK 22/14 Q1022

Decode

TAF

TAF EPMO 271730Z 2718/2818 07008KT CAVOK

Decode

Destination Runways

ID Width Length Bearing (true) Bearing (mag) Surface Threshold Offset Overrun Length
08 197 ft / 60 m 8,188 ft / 2,496 m 81.96° 76.14° Asphalt 0 ft / 0 m 0 ft / 0 m
26 197 ft / 60 m 8,188 ft / 2,496 m 261.99° 256.17° Asphalt 0 ft / 0 m 0 ft / 0 m